Time;durP1;ratioP1;P1;durP2;ratioP2;P2;SDS_P1;SDS_P2;PMS_P1;PMS_P2;Temp;Humidity;BMP_temperature;BMP_pressure;BME280_temperature;BME280_humidity;BME280_pressure;Samples;Min_cycle;Max_cycle;Signal;HPM_P1;HPM_P2
2022/05/09 00:01:28;;;;;;;;;;;;;;;;;;5062395;28;1739;-72
2022/05/09 00:03:54;;;;;;;;;;;;;;;;;;5054661;28;1605;-72
2022/05/09 00:06:19;;;;;;;;;;;;;;;;;;5063367;28;1902;-72
2022/05/09 00:08:45;;;;;;;;;;;;;;;;;;5061474;28;1496;-72
2022/05/09 00:11:11;;;;;;;;;;;;;;;;;;5063360;28;1486;-72
2022/05/09 00:13:37;;;;;;;;;;;;;;;;;;5063861;28;798;-73
2022/05/09 00:16:02;;;;;;;;;;;;;;;;;;5063422;28;1763;-72
2022/05/09 00:18:28;;;;;;;;;;;;;;;;;;5063655;28;1435;-72
2022/05/09 00:20:53;;;;;;;;;;;;;;;;;;5052977;28;1742;-72
2022/05/09 00:23:18;;;;;;;;;;;;;;;;;;5059728;28;1624;-72
2022/05/09 00:25:43;;;;;;;;;;;;;;;;;;5060734;28;1127;-72
2022/05/09 00:28:09;;;;;;;;;;;;;;;;;;5060485;28;1965;-73
2022/05/09 00:30:34;;;;;;;;;;;;;;;;;;5060726;28;806;-72
2022/05/09 00:32:59;;;;;;;;;;;;;;;;;;5060438;28;1502;-72
2022/05/09 00:35:25;;;;;;;;;;;;;;;;;;5060741;28;814;-73
2022/05/09 00:37:50;;;;;;;;;;;;;;;;;;5059682;28;1775;-72
2022/05/09 00:40:16;;;;;;;;;;;;;;;;;;5060434;28;1164;-72
2022/05/09 00:42:46;;;;;;;;;;;;;;;;;;5060866;28;1585;-72
2022/05/09 00:45:11;;;;;;;;;;;;;;;;;;5060622;28;849;-72
2022/05/09 00:47:37;;;;;;;;;;;;;;;;;;5060522;28;1890;-72
2022/05/09 00:50:04;;;;;;;;;;;;;;;;;;5060537;28;1048;-71
2022/05/09 00:52:32;;;;;;;;;;;;;;;;;;5052429;28;1815;-71
2022/05/09 00:55:04;;;;;;;;;;;;;;;;;;5059002;28;1117;-71
2022/05/09 00:57:33;;;;;;;;;;;;;;;;;;5063256;28;1467;-71
2022/05/09 01:00:00;;;;;;;;;;;;;;;;;;5063039;28;1795;-71
2022/05/09 01:02:25;;;;;;;;;;;;;;;;;;5053789;28;1418;-72
2022/05/09 01:04:52;;;;;;;;;;;;;;;;;;5063649;28;1394;-72
2022/05/09 01:07:17;;;;;;;;;;;;;;;;;;5063575;28;1858;-72
2022/05/09 01:09:42;;;;;;;;;;;;;;;;;;5063472;28;1173;-72
2022/05/09 01:12:09;;;;;;;;;;;;;;;;;;5062031;28;1526;-71
2022/05/09 01:14:34;;;;;;;;;;;;;;;;;;5062594;28;1560;-70
2022/05/09 01:17:02;;;;;;;;;;;;;;;;;;5063276;28;1141;-71
2022/05/09 01:19:30;;;;;;;;;;;;;;;;;;5061868;28;1425;-71
2022/05/09 01:21:55;;;;;;;;;;;;;;;;;;5055084;28;1135;-71
2022/05/09 01:24:22;;;;;;;;;;;;;;;;;;5063252;28;1463;-71
2022/05/09 01:26:48;;;;;;;;;;;;;;;;;;5063133;28;1921;-72
2022/05/09 01:29:16;;;;;;;;;;;;;;;;;;5062125;28;1593;-69
2022/05/09 01:31:41;;;;;;;;;;;;;;;;;;5063216;28;1120;-71
2022/05/09 01:34:09;;;;;;;;;;;;;;;;;;5063293;28;930;-70
2022/05/09 01:36:35;;;;;;;;;;;;;;;;;;5063115;28;827;-70
2022/05/09 01:39:02;;;;;;;;;;;;;;;;;;5054725;28;1755;-70
2022/05/09 01:41:28;;;;;;;;;;;;;;;;;;5062025;28;1229;-70
2022/05/09 01:43:55;;;;;;;;;;;;;;;;;;5062867;28;1598;-70
2022/05/09 01:46:22;;;;;;;;;;;;;;;;;;5062939;28;1957;-70
2022/05/09 01:51:31;;;;;;;;;;;;;;;;;;5065111;28;1198;-71
2022/05/09 01:53:57;;;;;;;;;;;;;;;;;;5062834;28;1506;-71
2022/05/09 01:56:24;;;;;;;;;;;;;;;;;;5062582;28;1501;-71
2022/05/09 01:58:50;;;;;;;;;;;;;;;;;;5062756;28;1238;-71
2022/05/09 02:01:19;;;;;;;;;;;;;;;;;;5053435;28;1842;-70
2022/05/09 02:03:47;;;;;;;;;;;;;;;;;;5062769;28;1304;-70
2022/05/09 02:06:13;;;;;;;;;;;;;;;;;;5057736;28;1914;-70
2022/05/09 02:08:38;;;;;;;;;;;;;;;;;;5054782;28;1347;-72
2022/05/09 02:11:04;;;;;;;;;;;;;;;;;;5062539;28;1493;-70
2022/05/09 02:13:29;;;;;;;;;;;;;;;;;;5062876;28;1411;-71
2022/05/09 02:15:54;;;;;;;;;;;;;;;;;;5061580;28;1775;-71
2022/05/09 02:18:19;;;;;;;;;;;;;;;;;;5062779;28;1342;-71
2022/05/09 02:20:46;;;;;;;;;;;;;;;;;;5062362;28;1384;-71
2022/05/09 02:23:13;;;;;;;;;;;;;;;;;;5062276;28;1581;-71
2022/05/09 02:25:39;;;;;;;;;;;;;;;;;;5061153;28;1210;-71
2022/05/09 02:28:07;;;;;;;;;;;;;;;;;;5062150;28;1894;-71
2022/05/09 02:30:33;;;;;;;;;;;;;;;;;;5061621;28;1999;-70
2022/05/09 02:32:58;;;;;;;;;;;;;;;;;;5062123;28;1009;-70
2022/05/09 02:35:23;;;;;;;;;;;;;;;;;;5052853;28;1803;-70
2022/05/09 02:37:49;;;;;;;;;;;;;;;;;;5061838;28;1236;-70
2022/05/09 02:40:15;;;;;;;;;;;;;;;;;;5062061;28;1627;-70
2022/05/09 02:42:40;;;;;;;;;;;;;;;;;;5062068;28;1584;-70
2022/05/09 02:45:07;;;;;;;;;;;;;;;;;;5061343;28;1770;-70
2022/05/09 02:47:32;;;;;;;;;;;;;;;;;;5061560;28;1957;-70
2022/05/09 02:49:57;;;;;;;;;;;;;;;;;;5061756;28;1498;-70
2022/05/09 02:52:22;;;;;;;;;;;;;;;;;;5061802;28;910;-70
2022/05/09 02:54:47;;;;;;;;;;;;;;;;;;5062189;28;1622;-70
2022/05/09 02:57:13;;;;;;;;;;;;;;;;;;5061675;28;1526;-70
2022/05/09 02:59:39;;;;;;;;;;;;;;;;;;5059500;28;1534;-70
2022/05/09 03:02:04;;;;;;;;;;;;;;;;;;5061673;28;1299;-72
2022/05/09 03:04:41;;;;;;;;;;;;;;;;;;5061950;28;846;-72
2022/05/09 03:07:08;;;;;;;;;;;;;;;;;;5060663;28;1893;-72
2022/05/09 03:09:33;;;;;;;;;;;;;;;;;;5053456;28;1169;-72
2022/05/09 03:11:58;;;;;;;;;;;;;;;;;;5061037;28;1620;-72
2022/05/09 03:14:24;;;;;;;;;;;;;;;;;;5059706;28;1731;-72
2022/05/09 03:16:49;;;;;;;;;;;;;;;;;;5060611;28;1477;-72
2022/05/09 03:19:14;;;;;;;;;;;;;;;;;;5061089;28;1494;-72
2022/05/09 03:21:40;;;;;;;;;;;;;;;;;;5059125;28;1776;-72
2022/05/09 03:24:05;;;;;;;;;;;;;;;;;;5061406;28;1304;-73
2022/05/09 03:26:31;;;;;;;;;;;;;;;;;;5060125;28;1902;-72
2022/05/09 03:28:57;;;;;;;;;;;;;;;;;;5061136;28;1254;-72
2022/05/09 03:31:22;;;;;;;;;;;;;;;;;;5060609;28;1814;-72
2022/05/09 03:33:47;;;;;;;;;;;;;;;;;;5060143;28;1608;-72
2022/05/09 03:36:12;;;;;;;;;;;;;;;;;;5059811;28;1025;-72
2022/05/09 03:38:38;;;;;;;;;;;;;;;;;;5061111;28;1168;-72
2022/05/09 03:41:03;;;;;;;;;;;;;;;;;;5060065;28;1278;-72
2022/05/09 03:43:29;;;;;;;;;;;;;;;;;;5059770;28;1648;-72
2022/05/09 03:45:55;;;;;;;;;;;;;;;;;;5052062;28;1894;-72
2022/05/09 03:48:20;;;;;;;;;;;;;;;;;;5060597;28;1494;-72
2022/05/09 03:50:45;;;;;;;;;;;;;;;;;;5061920;28;1879;-72
2022/05/09 03:53:10;;;;;;;;;;;;;;;;;;5061374;28;902;-72
2022/05/09 03:55:36;;;;;;;;;;;;;;;;;;5058056;28;1812;-72
2022/05/09 03:58:02;;;;;;;;;;;;;;;;;;5059580;28;1557;-70
2022/05/09 04:00:32;;;;;;;;;;;;;;;;;;5060922;28;1163;-71
2022/05/09 04:02:58;;;;;;;;;;;;;;;;;;5060899;28;1620;-71
2022/05/09 04:05:27;;;;;;;;;;;;;;;;;;5051616;28;1803;-71
2022/05/09 04:07:53;;;;;;;;;;;;;;;;;;5060317;28;1898;-71
2022/05/09 04:10:19;;;;;;;;;;;;;;;;;;5061200;28;810;-72
2022/05/09 04:12:45;;;;;;;;;;;;;;;;;;5056585;28;1565;-72
2022/05/09 04:17:54;;;;;;;;;;;;;;;;;;5060533;28;1370;-72
2022/05/09 04:20:19;;;;;;;;;;;;;;;;;;5058531;28;1772;-72
2022/05/09 04:22:45;;;;;;;;;;;;;;;;;;5060814;28;1148;-72
2022/05/09 04:25:12;;;;;;;;;;;;;;;;;;5058593;28;1933;-72
2022/05/09 04:27:37;;;;;;;;;;;;;;;;;;5063443;28;1906;-73
2022/05/09 04:30:03;;;;;;;;;;;;;;;;;;5063389;28;1668;-74
2022/05/09 04:32:28;;;;;;;;;;;;;;;;;;5055320;28;1168;-72
2022/05/09 04:34:54;;;;;;;;;;;;;;;;;;5064517;28;874;-74
2022/05/09 04:37:19;;;;;;;;;;;;;;;;;;5062715;28;1975;-72
2022/05/09 04:39:45;;;;;;;;;;;;;;;;;;5063782;28;1204;-74
2022/05/09 04:42:11;;;;;;;;;;;;;;;;;;5063163;28;1775;-73
2022/05/09 04:44:37;;;;;;;;;;;;;;;;;;5060703;28;1790;-74
2022/05/09 04:47:02;;;;;;;;;;;;;;;;;;5061677;28;1890;-75
2022/05/09 04:49:27;;;;;;;;;;;;;;;;;;5062354;28;1362;-76
2022/05/09 04:51:52;;;;;;;;;;;;;;;;;;5063867;28;1525;-75
2022/05/09 04:54:17;;;;;;;;;;;;;;;;;;5063234;28;1353;-78
2022/05/09 04:56:43;;;;;;;;;;;;;;;;;;5063671;28;1227;-73
2022/05/09 04:59:08;;;;;;;;;;;;;;;;;;5062909;28;1358;-74
2022/05/09 05:01:33;;;;;;;;;;;;;;;;;;5057810;28;1218;-74
2022/05/09 05:03:59;;;;;;;;;;;;;;;;;;5063863;28;889;-73
2022/05/09 05:06:25;;;;;;;;;;;;;;;;;;5062522;28;1981;-72
2022/05/09 05:08:50;;;;;;;;;;;;;;;;;;5062835;28;1648;-72
2022/05/09 05:11:15;;;;;;;;;;;;;;;;;;5063277;28;1518;-73
2022/05/09 05:13:41;;;;;;;;;;;;;;;;;;5063228;28;1525;-72
2022/05/09 05:16:06;;;;;;;;;;;;;;;;;;5063504;28;1626;-72
2022/05/09 05:18:32;;;;;;;;;;;;;;;;;;5062962;28;1510;-72
2022/05/09 05:20:58;;;;;;;;;;;;;;;;;;5051493;28;1332;-73
2022/05/09 05:23:23;;;;;;;;;;;;;;;;;;5062409;28;1481;-73
2022/05/09 05:25:48;;;;;;;;;;;;;;;;;;5063016;28;1651;-74
2022/05/09 05:28:14;;;;;;;;;;;;;;;;;;5062367;28;1894;-73
2022/05/09 05:30:40;;;;;;;;;;;;;;;;;;5062881;28;1549;-74
2022/05/09 05:33:05;;;;;;;;;;;;;;;;;;5063190;28;803;-74
2022/05/09 05:35:31;;;;;;;;;;;;;;;;;;5063025;28;1404;-74
2022/05/09 05:37:56;;;;;;;;;;;;;;;;;;5065518;28;1649;-74
2022/05/09 05:40:22;;;;;;;;;;;;;;;;;;5062228;28;1289;-75
2022/05/09 05:42:52;;;;;;;;;;;;;;;;;;5062286;28;1613;-76
2022/05/09 05:45:20;;;;;;;;;;;;;;;;;;5061795;28;1530;-75
2022/05/09 05:47:46;;;;;;;;;;;;;;;;;;5061755;28;1959;-75
2022/05/09 05:50:12;;;;;;;;;;;;;;;;;;5063193;28;834;-75
2022/05/09 05:52:37;;;;;;;;;;;;;;;;;;5062710;28;2009;-76
2022/05/09 05:55:03;;;;;;;;;;;;;;;;;;5062600;28;1261;-73
2022/05/09 05:57:29;;;;;;;;;;;;;;;;;;5043452;28;1332;-72
2022/05/09 06:00:05;;;;;;;;;;;;;;;;;;5061678;28;1641;-73
2022/05/09 06:02:30;;;;;;;;;;;;;;;;;;5062855;28;1565;-73
2022/05/09 06:04:55;;;;;;;;;;;;;;;;;;5062571;28;1506;-73
2022/05/09 06:07:22;;;;;;;;;;;;;;;;;;5062213;28;1889;-74
2022/05/09 06:09:49;;;;;;;;;;;;;;;;;;5062158;28;1784;-74
2022/05/09 06:12:15;;;;;;;;;;;;;;;;;;5060998;28;1533;-74
2022/05/09 06:14:41;;;;;;;;;;;;;;;;;;5057792;28;1245;-73
2022/05/09 06:17:06;;;;;;;;;;;;;;;;;;5062667;28;1561;-72
2022/05/09 06:19:32;;;;;;;;;;;;;;;;;;5061941;28;1506;-74
2022/05/09 06:21:59;;;;;;;;;;;;;;;;;;5062377;28;1537;-74
2022/05/09 06:24:24;;;;;;;;;;;;;;;;;;5061110;28;1299;-74
2022/05/09 06:26:50;;;;;;;;;;;;;;;;;;5062269;28;1922;-73
2022/05/09 06:29:15;;;;;;;;;;;;;;;;;;5060461;28;1492;-74
2022/05/09 06:31:40;;;;;;;;;;;;;;;;;;5062272;28;929;-74
2022/05/09 06:34:07;;;;;;;;;;;;;;;;;;5062101;28;1589;-73
2022/05/09 06:36:36;;;;;;;;;;;;;;;;;;5062159;28;1577;-75
2022/05/09 06:39:02;;;;;;;;;;;;;;;;;;5061158;28;1577;-74
2022/05/09 06:41:28;;;;;;;;;;;;;;;;;;5064470;28;1565;-76
2022/05/09 06:43:53;;;;;;;;;;;;;;;;;;5066208;28;822;-74
2022/05/09 06:46:18;;;;;;;;;;;;;;;;;;5065435;28;1906;-77
2022/05/09 06:48:43;;;;;;;;;;;;;;;;;;5060866;28;1576;-75
2022/05/09 06:51:09;;;;;;;;;;;;;;;;;;5061115;28;1636;-76
2022/05/09 06:53:34;;;;;;;;;;;;;;;;;;5061529;28;1636;-76
2022/05/09 06:55:59;;;;;;;;;;;;;;;;;;5061717;28;1510;-76
2022/05/09 06:58:25;;;;;;;;;;;;;;;;;;5061353;28;1585;-75
2022/05/09 07:00:51;;;;;;;;;;;;;;;;;;5060949;28;1432;-75
2022/05/09 07:03:17;;;;;;;;;;;;;;;;;;5059778;28;1368;-75
2022/05/09 07:05:45;;;;;;;;;;;;;;;;;;5061092;28;1733;-75
2022/05/09 07:08:10;;;;;;;;;;;;;;;;;;5059182;28;1914;-75
2022/05/09 07:10:36;;;;;;;;;;;;;;;;;;5060243;28;1789;-75
2022/05/09 07:13:02;;;;;;;;;;;;;;;;;;5062470;28;1515;-75
2022/05/09 07:15:28;;;;;;;;;;;;;;;;;;5060812;28;1825;-75
2022/05/09 07:17:54;;;;;;;;;;;;;;;;;;5058388;28;1781;-75
2022/05/09 07:20:20;;;;;;;;;;;;;;;;;;5060055;28;1263;-75
2022/05/09 07:22:46;;;;;;;;;;;;;;;;;;5060091;28;1691;-76
2022/05/09 07:25:13;;;;;;;;;;;;;;;;;;5060546;28;1330;-75
2022/05/09 07:27:39;;;;;;;;;;;;;;;;;;5060155;28;1913;-74
2022/05/09 07:30:04;;;;;;;;;;;;;;;;;;5060732;28;1262;-74
2022/05/09 07:32:29;;;;;;;;;;;;;;;;;;5060402;28;1282;-75
2022/05/09 07:34:55;;;;;;;;;;;;;;;;;;5061081;28;1267;-75
2022/05/09 07:37:21;;;;;;;;;;;;;;;;;;5059912;28;1318;-74
2022/05/09 07:39:46;;;;;;;;;;;;;;;;;;5058838;28;1461;-75
2022/05/09 07:42:12;;;;;;;;;;;;;;;;;;5059240;28;1500;-75
2022/05/09 07:44:37;;;;;;;;;;;;;;;;;;5049008;28;1228;-75
2022/05/09 07:47:03;;;;;;;;;;;;;;;;;;5041318;28;1902;-75
2022/05/09 07:49:28;;;;;;;;;;;;;;;;;;5044854;28;1473;-72
2022/05/09 07:51:53;;;;;;;;;;;;;;;;;;5060300;28;1490;-75
2022/05/09 07:54:18;;;;;;;;;;;;;;;;;;5059020;28;1453;-69
2022/05/09 07:56:44;;;;;;;;;;;;;;;;;;5059133;28;1584;-70
2022/05/09 07:59:09;;;;;;;;;;;;;;;;;;5054086;28;3470;-69
2022/05/09 08:01:34;;;;;;;;;;;;;;;;;;5058413;28;1506;-69
2022/05/09 08:04:00;;;;;;;;;;;;;;;;;;5060016;28;1259;-70
2022/05/09 08:06:26;;;;;;;;;;;;;;;;;;5060129;28;1894;-70
2022/05/09 08:08:51;;;;;;;;;;;;;;;;;;5055472;28;1429;-70
2022/05/09 08:11:17;;;;;;;;;;;;;;;;;;5059671;28;1263;-70
2022/05/09 08:13:43;;;;;;;;;;;;;;;;;;5057627;28;1946;-69
2022/05/09 08:16:08;;;;;;;;;;;;;;;;;;5058927;28;1438;-69
2022/05/09 08:18:34;;;;;;;;;;;;;;;;;;5057227;28;3183;-69
2022/05/09 08:21:00;;;;;;;;;;;;;;;;;;5048625;28;2899;-68
2022/05/09 08:23:25;;;;;;;;;;;;;;;;;;5058427;28;1413;-70
2022/05/09 08:25:51;;;;;;;;;;;;;;;;;;5057741;28;1433;-70
2022/05/09 08:28:17;;;;;;;;;;;;;;;;;;5059002;28;1886;-69
2022/05/09 08:30:43;;;;;;;;;;;;;;;;;;5056960;28;1357;-70
2022/05/09 08:33:17;;;;;;;;;;;;;;;;;;5057487;28;1430;-70
2022/05/09 08:35:43;;;;;;;;;;;;;;;;;;5059277;28;1541;-71
2022/05/09 08:38:08;;;;;;;;;;;;;;;;;;5059466;28;1319;-70
2022/05/09 08:40:40;;;;;;;;;;;;;;;;;;5057599;28;1409;-70
2022/05/09 08:43:08;;;;;;;;;;;;;;;;;;5059077;28;1263;-69
2022/05/09 08:45:36;;;;;;;;;;;;;;;;;;5057603;28;1446;-70
2022/05/09 08:48:22;;;;;;;;;;;;;;;;;;5058827;28;1898;-71
2022/05/09 08:51:05;;;;;;;;;;;;;;;;;;5055734;28;1279;-70
2022/05/09 08:53:33;;;;;;;;;;;;;;;;;;5059346;28;1275;-70
2022/05/09 08:55:59;;;;;;;;;;;;;;;;;;5059423;28;1258;-69
2022/05/09 08:58:28;;;;;;;;;;;;;;;;;;5059321;28;1272;-69
2022/05/09 09:00:53;;;;;;;;;;;;;;;;;;5057998;28;1457;-70
2022/05/09 09:03:29;;;;;;;;;;;;;;;;;;5059124;28;1588;-69
2022/05/09 09:05:57;;;;;;;;;;;;;;;;;;5060168;28;1380;-69
2022/05/09 09:08:22;;;;;;;;;;;;;;;;;;5059434;28;1898;-69
2022/05/09 09:11:06;;;;;;;;;;;;;;;;;;5058388;28;2720;-68
2022/05/09 09:13:40;;;;;;;;;;;;;;;;;;5076142;28;1655;-70
2022/05/09 09:16:16;;;;;;;;;;;;;;;;;;5058606;28;1291;-67
2022/05/09 09:18:42;;;;;;;;;;;;;;;;;;5061228;28;1362;-67
2022/05/09 09:21:13;;;;;;;;;;;;;;;;;;5061489;28;1640;-66
2022/05/09 09:24:03;;;;;;;;;;;;;;;;;;5062004;28;1353;-66
2022/05/09 09:26:38;;;;;;;;;;;;;;;;;;5056976;28;1895;-67
2022/05/09 09:29:03;;;;;;;;;;;;;;;;;;5060284;28;1406;-68
2022/05/09 09:31:30;;;;;;;;;;;;;;;;;;5061810;28;1389;-68
2022/05/09 09:34:34;;;;;;;;;;;;;;;;;;5061032;28;1541;-68
2022/05/09 09:37:07;;;;;;;;;;;;;;;;;;4999568;28;1718;-68
2022/05/09 09:39:32;;;;;;;;;;;;;;;;;;4997475;28;1510;-67
2022/05/09 09:41:57;;;;;;;;;;;;;;;;;;5029332;28;1871;-66
2022/05/09 09:44:24;;;;;;;;;;;;;;;;;;5060488;28;1730;-66
2022/05/09 09:47:08;;;;;;;;;;;;;;;;;;5059262;28;1902;-67
2022/05/09 09:49:41;;;;;;;;;;;;;;;;;;5059647;28;1843;-67
2022/05/09 09:52:20;;;;;;;;;;;;;;;;;;5058560;28;1428;-67
2022/05/09 09:54:51;;;;;;;;;;;;;;;;;;5059834;28;1518;-66
2022/05/09 09:57:28;;;;;;;;;;;;;;;;;;5060099;28;1444;-67
2022/05/09 09:59:53;;;;;;;;;;;;;;;;;;5060127;28;1431;-67
2022/05/09 10:02:24;;;;;;;;;;;;;;;;;;5060339;28;1372;-67
2022/05/09 10:04:49;;;;;;;;;;;;;;;;;;5058368;28;1372;-67
2022/05/09 10:07:25;;;;;;;;;;;;;;;;;;5059089;28;1965;-67
2022/05/09 10:10:10;;;;;;;;;;;;;;;;;;5060866;28;1400;-67
2022/05/09 10:12:36;;;;;;;;;;;;;;;;;;5060167;28;1492;-66
2022/05/09 10:15:02;;;;;;;;;;;;;;;;;;5060192;28;1456;-66
2022/05/09 10:17:29;;;;;;;;;;;;;;;;;;5060237;28;1761;-67
2022/05/09 10:19:55;;;;;;;;;;;;;;;;;;5060128;28;1377;-67
2022/05/09 10:25:22;;;;;;;;;;;;;;;;;;5056025;28;1578;-67
2022/05/09 10:28:03;;;;;;;;;;;;;;;;;;5060160;28;1977;-67
2022/05/09 10:30:36;;;;;;;;;;;;;;;;;;5060250;28;1496;-66
2022/05/09 10:33:22;;;;;;;;;;;;;;;;;;5057951;28;1636;-68
2022/05/09 10:35:52;;;;;;;;;;;;;;;;;;5061269;28;1626;-68
2022/05/09 10:38:17;;;;;;;;;;;;;;;;;;5060328;28;1255;-67
2022/05/09 10:40:58;;;;;;;;;;;;;;;;;;5059512;28;1315;-66
2022/05/09 10:43:50;;;;;;;;;;;;;;;;;;5061919;28;2742;-65
2022/05/09 10:46:17;;;;;;;;;;;;;;;;;;5051976;28;1988;-66
2022/05/09 10:49:16;;;;;;;;;;;;;;;;;;5057815;28;1467;-66
2022/05/09 10:51:51;;;;;;;;;;;;;;;;;;5029090;28;1437;-66
2022/05/09 10:54:22;;;;;;;;;;;;;;;;;;5058567;28;1323;-66
2022/05/09 10:56:58;;;;;;;;;;;;;;;;;;5061170;28;1271;-67
2022/05/09 10:59:27;;;;;;;;;;;;;;;;;;5058915;28;2789;-66
2022/05/09 11:02:00;;;;;;;;;;;;;;;;;;5059858;28;1293;-67
2022/05/09 11:04:25;;;;;;;;;;;;;;;;;;5062054;28;1279;-66
2022/05/09 11:07:05;;;;;;;;;;;;;;;;;;5061786;28;1962;-67
2022/05/09 11:09:48;;;;;;;;;;;;;;;;;;5060167;28;1329;-67
2022/05/09 11:12:25;;;;;;;;;;;;;;;;;;5057393;28;2855;-67
2022/05/09 11:14:58;;;;;;;;;;;;;;;;;;5061352;28;1255;-67
2022/05/09 11:17:36;;;;;;;;;;;;;;;;;;5058585;28;1275;-68
2022/05/09 11:20:01;;;;;;;;;;;;;;;;;;5056330;28;1380;-68
2022/05/09 11:22:31;;;;;;;;;;;;;;;;;;5056815;28;1328;-67
2022/05/09 11:24:59;;;;;;;;;;;;;;;;;;5057877;28;1303;-67
2022/05/09 11:27:43;;;;;;;;;;;;;;;;;;5057416;28;1898;-67
2022/05/09 11:30:27;;;;;;;;;;;;;;;;;;5059146;28;1287;-66
2022/05/09 11:33:03;;;;;;;;;;;;;;;;;;5060484;28;1660;-67
2022/05/09 11:35:30;;;;;;;;;;;;;;;;;;5059032;28;1315;-67
2022/05/09 11:37:56;;;;;;;;;;;;;;;;;;5061938;28;1349;-68
2022/05/09 11:40:27;;;;;;;;;;;;;;;;;;5058613;28;2941;-68
2022/05/09 11:43:32;;;;;;;;;;;;;;;;;;5059041;28;2646;-67
2022/05/09 11:46:09;;;;;;;;;;;;;;;;;;5058328;28;3056;-67
2022/05/09 11:48:49;;;;;;;;;;;;;;;;;;5059226;28;2848;-67
2022/05/09 11:51:27;;;;;;;;;;;;;;;;;;5060275;28;1251;-68
2022/05/09 11:53:57;;;;;;;;;;;;;;;;;;5059425;28;1294;-67
2022/05/09 11:56:22;;;;;;;;;;;;;;;;;;5056490;28;1337;-67
2022/05/09 11:58:48;;;;;;;;;;;;;;;;;;5055101;28;1374;-67
2022/05/09 12:01:14;;;;;;;;;;;;;;;;;;5059788;28;1455;-66
2022/05/09 12:03:42;;;;;;;;;;;;;;;;;;5058791;28;1318;-68
2022/05/09 12:06:27;;;;;;;;;;;;;;;;;;5062294;28;1274;-67
2022/05/09 12:08:53;;;;;;;;;;;;;;;;;;5063125;28;1400;-67
2022/05/09 12:11:37;;;;;;;;;;;;;;;;;;5060668;28;1370;-66
2022/05/09 12:14:04;;;;;;;;;;;;;;;;;;5059289;28;2684;-67
2022/05/09 12:16:36;;;;;;;;;;;;;;;;;;5058281;28;1336;-68
2022/05/09 12:19:05;;;;;;;;;;;;;;;;;;5058043;28;2597;-67
2022/05/09 12:21:37;;;;;;;;;;;;;;;;;;5060937;28;1237;-68
2022/05/09 12:24:14;;;;;;;;;;;;;;;;;;5063600;28;1231;-67
2022/05/09 12:26:41;;;;;;;;;;;;;;;;;;5062800;28;1898;-67
2022/05/09 12:29:12;;;;;;;;;;;;;;;;;;5062818;28;1350;-66
2022/05/09 12:31:45;;;;;;;;;;;;;;;;;;5063359;28;2637;-67
2022/05/09 12:34:11;;;;;;;;;;;;;;;;;;5062688;28;1577;-68
2022/05/09 12:36:37;;;;;;;;;;;;;;;;;;5061304;28;1271;-67
2022/05/09 12:39:14;;;;;;;;;;;;;;;;;;5061360;28;1640;-67
2022/05/09 12:41:45;;;;;;;;;;;;;;;;;;5062328;28;1361;-68
2022/05/09 12:44:13;;;;;;;;;;;;;;;;;;5064430;28;1448;-69
2022/05/09 12:46:44;;;;;;;;;;;;;;;;;;5061162;28;1898;-69
2022/05/09 12:49:10;;;;;;;;;;;;;;;;;;5060329;28;1308;-68
2022/05/09 12:51:41;;;;;;;;;;;;;;;;;;5067015;28;1203;-69
2022/05/09 12:54:07;;;;;;;;;;;;;;;;;;5062990;28;1282;-69
2022/05/09 12:56:33;;;;;;;;;;;;;;;;;;5062199;28;1579;-67
2022/05/09 12:59:00;;;;;;;;;;;;;;;;;;5060824;28;1255;-67
2022/05/09 13:01:27;;;;;;;;;;;;;;;;;;5058962;28;1389;-69
2022/05/09 13:04:03;;;;;;;;;;;;;;;;;;5063004;28;1352;-68
2022/05/09 13:06:30;;;;;;;;;;;;;;;;;;5063966;28;1902;-68
2022/05/09 13:08:57;;;;;;;;;;;;;;;;;;5059558;28;1506;-68
2022/05/09 13:11:23;;;;;;;;;;;;;;;;;;5062902;28;1550;-67
2022/05/09 13:14:06;;;;;;;;;;;;;;;;;;5061014;28;1214;-67
2022/05/09 13:16:33;;;;;;;;;;;;;;;;;;5063385;28;1317;-69
2022/05/09 13:18:59;;;;;;;;;;;;;;;;;;5064250;28;1466;-68
2022/05/09 13:21:26;;;;;;;;;;;;;;;;;;5063850;28;1198;-67
2022/05/09 13:23:52;;;;;;;;;;;;;;;;;;5064749;28;1175;-67
2022/05/09 13:26:21;;;;;;;;;;;;;;;;;;5063644;28;1910;-68
2022/05/09 13:28:48;;;;;;;;;;;;;;;;;;5062495;28;1398;-72
2022/05/09 13:31:51;;;;;;;;;;;;;;;;;;5059766;28;1278;-68
2022/05/09 13:34:20;;;;;;;;;;;;;;;;;;5031350;28;1330;-69
2022/05/09 13:36:46;;;;;;;;;;;;;;;;;;5054796;28;1558;-68
2022/05/09 13:39:20;;;;;;;;;;;;;;;;;;5061970;28;1375;-68
2022/05/09 13:41:45;;;;;;;;;;;;;;;;;;5061704;28;1281;-68
2022/05/09 13:44:12;;;;;;;;;;;;;;;;;;5061670;28;1341;-68
2022/05/09 13:46:39;;;;;;;;;;;;;;;;;;5062171;28;1975;-68
2022/05/09 13:49:06;;;;;;;;;;;;;;;;;;5061926;28;1314;-68
2022/05/09 13:51:32;;;;;;;;;;;;;;;;;;5060722;28;1445;-68
2022/05/09 13:54:00;;;;;;;;;;;;;;;;;;5062397;28;1408;-69
2022/05/09 13:56:26;;;;;;;;;;;;;;;;;;5062009;28;1307;-69
2022/05/09 13:58:54;;;;;;;;;;;;;;;;;;5061222;28;1342;-69
2022/05/09 14:01:20;;;;;;;;;;;;;;;;;;5061250;28;1219;-69
2022/05/09 14:03:47;;;;;;;;;;;;;;;;;;5062576;28;1446;-69
2022/05/09 14:06:16;;;;;;;;;;;;;;;;;;5062192;28;1243;-68
2022/05/09 14:08:44;;;;;;;;;;;;;;;;;;5053521;28;1894;-68
2022/05/09 14:11:11;;;;;;;;;;;;;;;;;;5060036;28;1321;-68
2022/05/09 14:13:39;;;;;;;;;;;;;;;;;;5060535;28;1322;-68
2022/05/09 14:16:11;;;;;;;;;;;;;;;;;;5062246;28;1222;-69
2022/05/09 14:18:37;;;;;;;;;;;;;;;;;;5059556;28;3712;-69
2022/05/09 14:21:04;;;;;;;;;;;;;;;;;;5065743;28;1171;-68
2022/05/09 14:23:29;;;;;;;;;;;;;;;;;;5059919;28;3205;-68
2022/05/09 14:31:38;;;;;;;;;;;;;;;;;;5061690;28;1266;-68
2022/05/09 14:34:11;;;;;;;;;;;;;;;;;;5060901;28;1275;-69
2022/05/09 14:36:36;;;;;;;;;;;;;;;;;;5062000;28;3243;-69
2022/05/09 14:39:14;;;;;;;;;;;;;;;;;;5061812;28;1875;-69
2022/05/09 14:41:40;;;;;;;;;;;;;;;;;;5060512;28;1426;-69
2022/05/09 14:44:14;;;;;;;;;;;;;;;;;;5059926;28;1415;-69
2022/05/09 14:46:49;;;;;;;;;;;;;;;;;;5058650;28;1905;-69
2022/05/09 14:49:15;;;;;;;;;;;;;;;;;;5059128;28;1330;-69
2022/05/09 14:51:40;;;;;;;;;;;;;;;;;;5061274;28;1306;-69
2022/05/09 14:54:07;;;;;;;;;;;;;;;;;;5061222;28;1478;-69
2022/05/09 14:59:29;;;;;;;;;;;;;;;;;;5059029;28;1557;-69
2022/05/09 15:02:01;;;;;;;;;;;;;;;;;;5060007;28;1416;-67
2022/05/09 15:04:26;;;;;;;;;;;;;;;;;;5061586;28;1295;-67
2022/05/09 15:06:51;;;;;;;;;;;;;;;;;;5060734;28;1899;-68
2022/05/09 15:09:17;;;;;;;;;;;;;;;;;;5060532;28;1373;-68
2022/05/09 15:11:42;;;;;;;;;;;;;;;;;;5060003;28;1554;-68
2022/05/09 15:14:10;;;;;;;;;;;;;;;;;;5051637;28;1423;-67
2022/05/09 15:16:35;;;;;;;;;;;;;;;;;;5057517;28;1405;-67
2022/05/09 15:19:01;;;;;;;;;;;;;;;;;;5059433;28;1325;-69
2022/05/09 15:21:26;;;;;;;;;;;;;;;;;;5060563;28;1333;-67
2022/05/09 15:23:52;;;;;;;;;;;;;;;;;;5061192;28;1275;-69
2022/05/09 15:26:18;;;;;;;;;;;;;;;;;;5060639;28;1183;-68
2022/05/09 15:28:44;;;;;;;;;;;;;;;;;;5060194;28;1967;-68
2022/05/09 15:31:11;;;;;;;;;;;;;;;;;;5059507;28;1398;-69
2022/05/09 15:33:37;;;;;;;;;;;;;;;;;;5051865;28;1760;-68
2022/05/09 15:36:02;;;;;;;;;;;;;;;;;;5058964;28;1502;-68
2022/05/09 15:38:28;;;;;;;;;;;;;;;;;;5059328;28;1442;-69
2022/05/09 15:40:55;;;;;;;;;;;;;;;;;;5056241;28;1390;-69
2022/05/09 15:43:25;;;;;;;;;;;;;;;;;;5056502;28;1668;-67
2022/05/09 15:45:51;;;;;;;;;;;;;;;;;;5060644;28;1583;-67
2022/05/09 15:48:17;;;;;;;;;;;;;;;;;;5059803;28;2002;-67
2022/05/09 15:50:42;;;;;;;;;;;;;;;;;;5060373;28;1223;-67
2022/05/09 15:53:08;;;;;;;;;;;;;;;;;;5058988;28;1246;-67
2022/05/09 15:55:33;;;;;;;;;;;;;;;;;;5060618;28;1339;-67
2022/05/09 15:57:59;;;;;;;;;;;;;;;;;;5060113;28;1270;-67
2022/05/09 16:00:24;;;;;;;;;;;;;;;;;;5059423;28;1294;-67
2022/05/09 16:02:50;;;;;;;;;;;;;;;;;;5059650;28;1557;-67
2022/05/09 16:05:15;;;;;;;;;;;;;;;;;;5059710;28;1356;-66
2022/05/09 16:13:08;;;;;;;;;;;;;;;;;;5058280;28;1422;-67
2022/05/09 16:15:34;;;;;;;;;;;;;;;;;;5059635;28;1319;-66
2022/05/09 16:18:02;;;;;;;;;;;;;;;;;;5058426;28;1344;-66
2022/05/09 16:20:28;;;;;;;;;;;;;;;;;;5073707;28;1436;-67
2022/05/09 16:22:53;;;;;;;;;;;;;;;;;;5062722;28;1713;-66
2022/05/09 16:25:19;;;;;;;;;;;;;;;;;;5061600;28;1289;-66
2022/05/09 16:27:45;;;;;;;;;;;;;;;;;;5062733;28;1894;-65
2022/05/09 16:30:24;;;;;;;;;;;;;;;;;;5062043;28;1377;-65
2022/05/09 16:32:50;;;;;;;;;;;;;;;;;;5062152;28;1417;-66
2022/05/09 16:35:18;;;;;;;;;;;;;;;;;;5063375;28;1246;-66
2022/05/09 16:37:46;;;;;;;;;;;;;;;;;;5062758;28;1273;-66
2022/05/09 16:40:13;;;;;;;;;;;;;;;;;;5063558;28;1254;-66
2022/05/09 16:42:40;;;;;;;;;;;;;;;;;;5061644;28;1454;-66
2022/05/09 16:45:07;;;;;;;;;;;;;;;;;;5063369;28;1136;-67
2022/05/09 16:47:33;;;;;;;;;;;;;;;;;;5062005;28;1894;-67
2022/05/09 16:49:58;;;;;;;;;;;;;;;;;;5061637;28;1287;-66
2022/05/09 16:52:24;;;;;;;;;;;;;;;;;;5063463;28;1370;-66
2022/05/09 16:54:50;;;;;;;;;;;;;;;;;;5062354;28;1367;-66
2022/05/09 16:57:16;;;;;;;;;;;;;;;;;;5063201;28;1242;-66
2022/05/09 16:59:44;;;;;;;;;;;;;;;;;;5061599;28;1306;-66
2022/05/09 17:02:14;;;;;;;;;;;;;;;;;;5062787;28;1629;-66
2022/05/09 17:04:39;;;;;;;;;;;;;;;;;;5063398;28;1263;-67
2022/05/09 17:07:05;;;;;;;;;;;;;;;;;;5062590;28;1949;-66
2022/05/09 17:09:31;;;;;;;;;;;;;;;;;;5062213;28;1342;-66
2022/05/09 17:11:57;;;;;;;;;;;;;;;;;;5063416;28;1469;-67
2022/05/09 17:14:22;;;;;;;;;;;;;;;;;;5062907;28;1349;-66
2022/05/09 17:16:47;;;;;;;;;;;;;;;;;;5060802;28;3749;-67
2022/05/09 17:19:12;;;;;;;;;;;;;;;;;;5062275;28;3583;-67
2022/05/09 17:21:38;;;;;;;;;;;;;;;;;;5062071;28;3164;-66
2022/05/09 17:24:04;;;;;;;;;;;;;;;;;;5062098;28;1435;-66
2022/05/09 17:26:30;;;;;;;;;;;;;;;;;;5062606;28;1906;-66
2022/05/09 17:29:04;;;;;;;;;;;;;;;;;;5061847;28;1382;-66
2022/05/09 17:31:29;;;;;;;;;;;;;;;;;;5061402;28;1216;-66